sensor_id;sensor_type;location;lat;lon;timestamp;P1;durP1;ratioP1;P2;durP2;ratioP2
43962;SDS011;29622;45.534;9.242;2022-09-16T00:04:42;17.25;;;2.85;;
43962;SDS011;29622;45.534;9.242;2022-09-16T00:09:42;14.60;;;2.58;;
43962;SDS011;29622;45.534;9.242;2022-09-16T00:14:43;9.07;;;3.17;;
43962;SDS011;29622;45.534;9.242;2022-09-16T00:19:43;12.45;;;2.05;;
43962;SDS011;29622;45.534;9.242;2022-09-16T00:24:44;13.55;;;3.20;;
43962;SDS011;29622;45.534;9.242;2022-09-16T00:29:47;17.85;;;2.88;;
43962;SDS011;29622;45.534;9.242;2022-09-16T00:34:48;8.38;;;2.60;;
43962;SDS011;29622;45.534;9.242;2022-09-16T00:39:49;13.38;;;2.95;;
43962;SDS011;29622;45.534;9.242;2022-09-16T00:50:06;8.25;;;2.92;;
43962;SDS011;29622;45.534;9.242;2022-09-16T00:55:10;10.68;;;2.67;;
43962;SDS011;29622;45.534;9.242;2022-09-16T01:00:16;9.33;;;2.80;;
43962;SDS011;29622;45.534;9.242;2022-09-16T01:05:19;12.35;;;3.28;;
43962;SDS011;29622;45.534;9.242;2022-09-16T01:10:23;14.30;;;3.38;;
43962;SDS011;29622;45.534;9.242;2022-09-16T01:15:28;9.77;;;3.28;;
43962;SDS011;29622;45.534;9.242;2022-09-16T01:26:07;19.77;;;4.47;;
43962;SDS011;29622;45.534;9.242;2022-09-16T01:31:17;10.10;;;3.13;;
43962;SDS011;29622;45.534;9.242;2022-09-16T01:52:34;15.57;;;3.88;;
43962;SDS011;29622;45.534;9.242;2022-09-16T02:02:57;18.42;;;4.75;;
43962;SDS011;29622;45.534;9.242;2022-09-16T02:08:01;25.55;;;5.40;;
43962;SDS011;29622;45.534;9.242;2022-09-16T02:13:11;18.08;;;5.68;;
43962;SDS011;29622;45.534;9.242;2022-09-16T02:18:20;21.08;;;4.40;;
43962;SDS011;29622;45.534;9.242;2022-09-16T02:23:31;12.55;;;4.75;;
43962;SDS011;29622;45.534;9.242;2022-09-16T02:28:39;10.75;;;3.78;;
43962;SDS011;29622;45.534;9.242;2022-09-16T02:33:44;10.23;;;3.67;;
43962;SDS011;29622;45.534;9.242;2022-09-16T02:38:53;15.85;;;4.03;;
43962;SDS011;29622;45.534;9.242;2022-09-16T02:44:07;14.48;;;3.50;;
43962;SDS011;29622;45.534;9.242;2022-09-16T02:54:33;12.10;;;4.70;;
43962;SDS011;29622;45.534;9.242;2022-09-16T02:59:36;8.98;;;2.70;;
43962;SDS011;29622;45.534;9.242;2022-09-16T03:04:38;6.97;;;3.50;;
43962;SDS011;29622;45.534;9.242;2022-09-16T03:09:40;10.35;;;3.50;;
43962;SDS011;29622;45.534;9.242;2022-09-16T03:25:19;70.72;;;11.02;;
43962;SDS011;29622;45.534;9.242;2022-09-16T03:30:22;26.40;;;5.18;;
43962;SDS011;29622;45.534;9.242;2022-09-16T03:35:26;20.63;;;7.03;;
43962;SDS011;29622;45.534;9.242;2022-09-16T03:40:31;8.73;;;3.08;;
43962;SDS011;29622;45.534;9.242;2022-09-16T03:45:32;13.07;;;3.00;;
43962;SDS011;29622;45.534;9.242;2022-09-16T03:50:33;9.88;;;2.70;;
43962;SDS011;29622;45.534;9.242;2022-09-16T03:55:34;12.85;;;2.83;;
43962;SDS011;29622;45.534;9.242;2022-09-16T04:00:35;16.92;;;4.25;;
43962;SDS011;29622;45.534;9.242;2022-09-16T04:05:36;13.35;;;3.05;;
43962;SDS011;29622;45.534;9.242;2022-09-16T04:10:36;43.38;;;8.25;;
43962;SDS011;29622;45.534;9.242;2022-09-16T04:15:37;6.13;;;2.20;;
43962;SDS011;29622;45.534;9.242;2022-09-16T04:20:38;9.30;;;2.22;;
43962;SDS011;29622;45.534;9.242;2022-09-16T04:25:39;7.10;;;2.10;;
43962;SDS011;29622;45.534;9.242;2022-09-16T04:30:42;4.32;;;1.60;;
43962;SDS011;29622;45.534;9.242;2022-09-16T04:35:43;6.18;;;2.47;;
43962;SDS011;29622;45.534;9.242;2022-09-16T04:40:43;5.47;;;2.08;;
43962;SDS011;29622;45.534;9.242;2022-09-16T04:45:44;8.73;;;2.40;;
43962;SDS011;29622;45.534;9.242;2022-09-16T04:50:44;5.28;;;2.42;;
43962;SDS011;29622;45.534;9.242;2022-09-16T04:55:46;7.05;;;3.00;;
43962;SDS011;29622;45.534;9.242;2022-09-16T05:00:47;4.63;;;2.45;;
43962;SDS011;29622;45.534;9.242;2022-09-16T05:05:47;9.75;;;3.00;;
43962;SDS011;29622;45.534;9.242;2022-09-16T05:10:48;6.55;;;2.78;;
43962;SDS011;29622;45.534;9.242;2022-09-16T05:15:49;11.43;;;3.72;;
43962;SDS011;29622;45.534;9.242;2022-09-16T05:20:54;5.25;;;2.92;;
43962;SDS011;29622;45.534;9.242;2022-09-16T05:26:04;7.55;;;3.25;;
43962;SDS011;29622;45.534;9.242;2022-09-16T05:31:10;6.80;;;2.50;;
43962;SDS011;29622;45.534;9.242;2022-09-16T05:36:12;6.50;;;2.38;;
43962;SDS011;29622;45.534;9.242;2022-09-16T05:41:15;7.28;;;3.58;;
43962;SDS011;29622;45.534;9.242;2022-09-16T05:46:17;11.63;;;3.10;;
43962;SDS011;29622;45.534;9.242;2022-09-16T05:51:20;8.82;;;3.15;;
43962;SDS011;29622;45.534;9.242;2022-09-16T05:56:22;8.57;;;3.25;;
43962;SDS011;29622;45.534;9.242;2022-09-16T06:01:26;15.52;;;3.60;;
43962;SDS011;29622;45.534;9.242;2022-09-16T06:06:36;11.90;;;3.63;;
43962;SDS011;29622;45.534;9.242;2022-09-16T06:11:40;18.70;;;4.35;;
43962;SDS011;29622;45.534;9.242;2022-09-16T06:16:43;25.98;;;6.28;;
43962;SDS011;29622;45.534;9.242;2022-09-16T06:21:44;16.88;;;5.38;;
43962;SDS011;29622;45.534;9.242;2022-09-16T06:26:45;16.17;;;5.63;;
43962;SDS011;29622;45.534;9.242;2022-09-16T06:31:47;10.88;;;6.18;;
43962;SDS011;29622;45.534;9.242;2022-09-16T06:36:47;18.08;;;6.72;;
43962;SDS011;29622;45.534;9.242;2022-09-16T06:41:48;12.05;;;6.28;;
43962;SDS011;29622;45.534;9.242;2022-09-16T06:46:49;21.45;;;6.20;;
43962;SDS011;29622;45.534;9.242;2022-09-16T06:51:49;8.65;;;4.38;;
43962;SDS011;29622;45.534;9.242;2022-09-16T06:56:50;16.63;;;5.28;;
43962;SDS011;29622;45.534;9.242;2022-09-16T07:01:51;10.68;;;5.07;;
43962;SDS011;29622;45.534;9.242;2022-09-16T07:06:52;21.42;;;7.07;;
43962;SDS011;29622;45.534;9.242;2022-09-16T07:11:52;19.08;;;6.95;;
43962;SDS011;29622;45.534;9.242;2022-09-16T07:16:53;23.85;;;6.82;;
43962;SDS011;29622;45.534;9.242;2022-09-16T07:21:54;12.27;;;6.03;;
43962;SDS011;29622;45.534;9.242;2022-09-16T07:26:55;12.23;;;5.30;;
43962;SDS011;29622;45.534;9.242;2022-09-16T07:31:55;14.13;;;6.25;;
43962;SDS011;29622;45.534;9.242;2022-09-16T07:36:56;14.55;;;5.93;;
43962;SDS011;29622;45.534;9.242;2022-09-16T07:41:58;13.32;;;5.35;;
43962;SDS011;29622;45.534;9.242;2022-09-16T07:47:01;21.05;;;6.53;;
43962;SDS011;29622;45.534;9.242;2022-09-16T07:52:01;16.55;;;6.28;;
43962;SDS011;29622;45.534;9.242;2022-09-16T07:57:02;15.93;;;6.38;;
43962;SDS011;29622;45.534;9.242;2022-09-16T08:02:03;20.50;;;6.53;;
43962;SDS011;29622;45.534;9.242;2022-09-16T08:07:04;15.52;;;5.90;;
43962;SDS011;29622;45.534;9.242;2022-09-16T08:12:05;23.25;;;8.15;;
43962;SDS011;29622;45.534;9.242;2022-09-16T08:17:09;16.73;;;6.32;;
43962;SDS011;29622;45.534;9.242;2022-09-16T08:22:10;13.75;;;4.35;;
43962;SDS011;29622;45.534;9.242;2022-09-16T08:27:10;15.23;;;4.00;;
43962;SDS011;29622;45.534;9.242;2022-09-16T08:32:11;23.20;;;7.75;;
43962;SDS011;29622;45.534;9.242;2022-09-16T08:37:12;18.08;;;5.43;;
43962;SDS011;29622;45.534;9.242;2022-09-16T08:42:22;20.33;;;6.97;;
43962;SDS011;29622;45.534;9.242;2022-09-16T08:52:51;13.00;;;4.18;;
43962;SDS011;29622;45.534;9.242;2022-09-16T08:58:03;17.92;;;6.10;;
43962;SDS011;29622;45.534;9.242;2022-09-16T09:03:39;17.15;;;7.55;;
43962;SDS011;29622;45.534;9.242;2022-09-16T09:08:47;23.48;;;9.35;;
43962;SDS011;29622;45.534;9.242;2022-09-16T09:39:54;24.75;;;8.18;;
43962;SDS011;29622;45.534;9.242;2022-09-16T09:44:59;19.45;;;5.90;;
43962;SDS011;29622;45.534;9.242;2022-09-16T09:50:16;20.83;;;7.97;;
43962;SDS011;29622;45.534;9.242;2022-09-16T09:55:33;21.42;;;7.85;;
43962;SDS011;29622;45.534;9.242;2022-09-16T10:00:34;19.38;;;9.35;;
43962;SDS011;29622;45.534;9.242;2022-09-16T10:05:35;16.23;;;7.35;;
43962;SDS011;29622;45.534;9.242;2022-09-16T10:10:35;18.27;;;7.53;;
43962;SDS011;29622;45.534;9.242;2022-09-16T10:16:08;14.10;;;5.13;;
43962;SDS011;29622;45.534;9.242;2022-09-16T10:21:14;15.38;;;5.55;;
43962;SDS011;29622;45.534;9.242;2022-09-16T10:26:17;15.45;;;8.63;;
43962;SDS011;29622;45.534;9.242;2022-09-16T10:31:18;15.88;;;5.07;;
43962;SDS011;29622;45.534;9.242;2022-09-16T10:36:21;9.25;;;3.63;;
43962;SDS011;29622;45.534;9.242;2022-09-16T10:41:29;20.17;;;6.25;;
43962;SDS011;29622;45.534;9.242;2022-09-16T10:51:33;25.35;;;4.03;;
43962;SDS011;29622;45.534;9.242;2022-09-16T10:56:45;17.45;;;5.07;;
43962;SDS011;29622;45.534;9.242;2022-09-16T11:23:12;24.02;;;6.22;;
43962;SDS011;29622;45.534;9.242;2022-09-16T11:33:40;17.27;;;5.40;;
43962;SDS011;29622;45.534;9.242;2022-09-16T11:44:04;13.23;;;3.72;;
43962;SDS011;29622;45.534;9.242;2022-09-16T11:55:04;12.43;;;3.70;;
43962;SDS011;29622;45.534;9.242;2022-09-16T12:00:16;19.15;;;6.43;;
43962;SDS011;29622;45.534;9.242;2022-09-16T12:10:40;10.05;;;3.70;;
43962;SDS011;29622;45.534;9.242;2022-09-16T12:21:08;15.75;;;4.05;;
43962;SDS011;29622;45.534;9.242;2022-09-16T12:26:11;15.00;;;3.90;;
43962;SDS011;29622;45.534;9.242;2022-09-16T12:31:34;12.30;;;3.10;;
43962;SDS011;29622;45.534;9.242;2022-09-16T12:36:36;9.23;;;3.00;;
43962;SDS011;29622;45.534;9.242;2022-09-16T12:57:51;14.05;;;2.83;;
43962;SDS011;29622;45.534;9.242;2022-09-16T13:03:12;10.02;;;2.65;;
43962;SDS011;29622;45.534;9.242;2022-09-16T13:08:21;5.97;;;2.10;;
43962;SDS011;29622;45.534;9.242;2022-09-16T13:13:31;8.82;;;2.92;;
43962;SDS011;29622;45.534;9.242;2022-09-16T13:18:44;5.35;;;2.05;;
43962;SDS011;29622;45.534;9.242;2022-09-16T13:23:51;11.40;;;1.98;;
43962;SDS011;29622;45.534;9.242;2022-09-16T13:29:22;7.50;;;2.50;;
43962;SDS011;29622;45.534;9.242;2022-09-16T13:34:37;10.50;;;2.15;;
43962;SDS011;29622;45.534;9.242;2022-09-16T13:39:38;4.43;;;2.25;;
43962;SDS011;29622;45.534;9.242;2022-09-16T13:44:40;8.38;;;1.77;;
43962;SDS011;29622;45.534;9.242;2022-09-16T13:49:52;6.93;;;2.00;;
43962;SDS011;29622;45.534;9.242;2022-09-16T13:54:59;5.07;;;1.83;;
43962;SDS011;29622;45.534;9.242;2022-09-16T14:00:09;7.80;;;2.22;;
43962;SDS011;29622;45.534;9.242;2022-09-16T14:16:24;7.32;;;1.80;;
43962;SDS011;29622;45.534;9.242;2022-09-16T14:21:27;8.55;;;2.05;;
43962;SDS011;29622;45.534;9.242;2022-09-16T14:26:28;4.43;;;2.08;;
43962;SDS011;29622;45.534;9.242;2022-09-16T14:31:29;3.95;;;2.05;;
43962;SDS011;29622;45.534;9.242;2022-09-16T14:36:32;6.32;;;2.90;;
43962;SDS011;29622;45.534;9.242;2022-09-16T14:41:52;5.75;;;2.30;;
43962;SDS011;29622;45.534;9.242;2022-09-16T14:46:58;6.82;;;2.00;;
43962;SDS011;29622;45.534;9.242;2022-09-16T14:52:03;13.20;;;3.20;;
43962;SDS011;29622;45.534;9.242;2022-09-16T14:57:24;8.25;;;2.55;;
43962;SDS011;29622;45.534;9.242;2022-09-16T15:02:32;6.57;;;2.50;;
43962;SDS011;29622;45.534;9.242;2022-09-16T15:07:40;9.35;;;1.92;;
43962;SDS011;29622;45.534;9.242;2022-09-16T15:12:43;5.57;;;1.70;;
43962;SDS011;29622;45.534;9.242;2022-09-16T15:17:53;4.60;;;1.67;;
43962;SDS011;29622;45.534;9.242;2022-09-16T15:23:04;10.37;;;2.20;;
43962;SDS011;29622;45.534;9.242;2022-09-16T15:28:13;4.80;;;1.80;;
43962;SDS011;29622;45.534;9.242;2022-09-16T15:33:35;8.63;;;2.40;;
43962;SDS011;29622;45.534;9.242;2022-09-16T15:38:39;3.88;;;1.67;;
43962;SDS011;29622;45.534;9.242;2022-09-16T15:43:42;9.23;;;2.28;;
43962;SDS011;29622;45.534;9.242;2022-09-16T15:48:50;6.78;;;2.17;;
43962;SDS011;29622;45.534;9.242;2022-09-16T15:54:14;4.97;;;1.92;;
43962;SDS011;29622;45.534;9.242;2022-09-16T15:59:30;8.23;;;3.53;;
43962;SDS011;29622;45.534;9.242;2022-09-16T16:04:33;5.97;;;1.75;;
43962;SDS011;29622;45.534;9.242;2022-09-16T16:09:35;9.45;;;2.55;;
43962;SDS011;29622;45.534;9.242;2022-09-16T16:14:38;4.97;;;2.78;;
43962;SDS011;29622;45.534;9.242;2022-09-16T16:19:43;7.00;;;2.30;;
43962;SDS011;29622;45.534;9.242;2022-09-16T16:24:48;7.10;;;3.17;;
43962;SDS011;29622;45.534;9.242;2022-09-16T16:29:49;6.10;;;1.90;;
43962;SDS011;29622;45.534;9.242;2022-09-16T16:34:49;14.32;;;3.50;;
43962;SDS011;29622;45.534;9.242;2022-09-16T16:39:50;7.20;;;2.33;;
43962;SDS011;29622;45.534;9.242;2022-09-16T16:44:51;6.35;;;2.45;;
43962;SDS011;29622;45.534;9.242;2022-09-16T16:49:52;7.35;;;2.50;;
43962;SDS011;29622;45.534;9.242;2022-09-16T16:54:53;9.50;;;2.55;;
43962;SDS011;29622;45.534;9.242;2022-09-16T16:59:54;12.98;;;2.70;;
43962;SDS011;29622;45.534;9.242;2022-09-16T17:04:54;6.07;;;2.20;;
43962;SDS011;29622;45.534;9.242;2022-09-16T17:09:55;4.72;;;2.38;;
43962;SDS011;29622;45.534;9.242;2022-09-16T17:14:56;14.85;;;2.50;;
43962;SDS011;29622;45.534;9.242;2022-09-16T17:19:57;8.18;;;2.15;;
43962;SDS011;29622;45.534;9.242;2022-09-16T17:24:58;6.00;;;2.20;;
43962;SDS011;29622;45.534;9.242;2022-09-16T17:29:58;8.02;;;3.30;;
43962;SDS011;29622;45.534;9.242;2022-09-16T17:35:02;8.00;;;2.85;;
43962;SDS011;29622;45.534;9.242;2022-09-16T17:40:03;6.97;;;2.72;;
43962;SDS011;29622;45.534;9.242;2022-09-16T17:45:04;9.00;;;2.97;;
43962;SDS011;29622;45.534;9.242;2022-09-16T17:50:05;6.10;;;2.10;;
43962;SDS011;29622;45.534;9.242;2022-09-16T17:55:06;5.95;;;2.30;;
43962;SDS011;29622;45.534;9.242;2022-09-16T18:00:07;6.18;;;2.20;;
43962;SDS011;29622;45.534;9.242;2022-09-16T18:10:16;3.67;;;1.67;;
43962;SDS011;29622;45.534;9.242;2022-09-16T18:15:16;5.15;;;2.53;;
43962;SDS011;29622;45.534;9.242;2022-09-16T18:20:17;4.43;;;1.73;;
43962;SDS011;29622;45.534;9.242;2022-09-16T18:25:18;6.70;;;2.28;;
43962;SDS011;29622;45.534;9.242;2022-09-16T18:30:19;4.93;;;2.17;;
43962;SDS011;29622;45.534;9.242;2022-09-16T18:35:21;7.97;;;2.55;;
43962;SDS011;29622;45.534;9.242;2022-09-16T18:40:21;5.78;;;2.10;;
43962;SDS011;29622;45.534;9.242;2022-09-16T18:45:22;9.77;;;2.13;;
43962;SDS011;29622;45.534;9.242;2022-09-16T18:50:23;7.05;;;2.05;;
43962;SDS011;29622;45.534;9.242;2022-09-16T18:55:24;7.07;;;2.92;;
43962;SDS011;29622;45.534;9.242;2022-09-16T19:00:25;5.95;;;1.75;;
43962;SDS011;29622;45.534;9.242;2022-09-16T19:05:26;4.32;;;2.22;;
43962;SDS011;29622;45.534;9.242;2022-09-16T19:10:28;4.13;;;1.90;;
43962;SDS011;29622;45.534;9.242;2022-09-16T19:15:29;5.90;;;2.10;;
43962;SDS011;29622;45.534;9.242;2022-09-16T19:20:30;4.18;;;1.77;;
43962;SDS011;29622;45.534;9.242;2022-09-16T19:25:31;9.32;;;3.13;;
43962;SDS011;29622;45.534;9.242;2022-09-16T19:30:31;9.55;;;2.50;;
43962;SDS011;29622;45.534;9.242;2022-09-16T19:35:32;4.22;;;2.17;;
43962;SDS011;29622;45.534;9.242;2022-09-16T19:40:33;8.93;;;3.03;;
43962;SDS011;29622;45.534;9.242;2022-09-16T19:45:34;4.30;;;2.00;;
43962;SDS011;29622;45.534;9.242;2022-09-16T19:50:35;5.10;;;1.80;;
43962;SDS011;29622;45.534;9.242;2022-09-16T19:55:36;8.32;;;2.30;;
43962;SDS011;29622;45.534;9.242;2022-09-16T20:00:37;4.18;;;2.15;;
43962;SDS011;29622;45.534;9.242;2022-09-16T20:05:38;8.43;;;2.35;;
43962;SDS011;29622;45.534;9.242;2022-09-16T20:10:39;6.25;;;1.70;;
43962;SDS011;29622;45.534;9.242;2022-09-16T20:15:40;5.43;;;1.73;;
43962;SDS011;29622;45.534;9.242;2022-09-16T20:20:41;5.30;;;1.92;;
43962;SDS011;29622;45.534;9.242;2022-09-16T20:25:42;4.88;;;1.88;;
43962;SDS011;29622;45.534;9.242;2022-09-16T20:30:44;3.10;;;1.60;;
43962;SDS011;29622;45.534;9.242;2022-09-16T20:35:46;4.40;;;1.70;;
43962;SDS011;29622;45.534;9.242;2022-09-16T20:40:47;2.85;;;1.67;;
43962;SDS011;29622;45.534;9.242;2022-09-16T20:45:48;5.15;;;1.77;;
43962;SDS011;29622;45.534;9.242;2022-09-16T20:50:49;4.82;;;1.80;;
43962;SDS011;29622;45.534;9.242;2022-09-16T20:55:50;2.38;;;1.35;;
43962;SDS011;29622;45.534;9.242;2022-09-16T21:00:50;4.30;;;1.30;;
43962;SDS011;29622;45.534;9.242;2022-09-16T21:05:51;5.35;;;1.50;;
43962;SDS011;29622;45.534;9.242;2022-09-16T21:10:52;6.97;;;2.00;;
43962;SDS011;29622;45.534;9.242;2022-09-16T21:15:53;4.78;;;1.70;;
43962;SDS011;29622;45.534;9.242;2022-09-16T21:20:59;6.05;;;2.10;;
43962;SDS011;29622;45.534;9.242;2022-09-16T21:26:02;8.20;;;2.17;;
43962;SDS011;29622;45.534;9.242;2022-09-16T21:31:06;4.50;;;2.30;;
43962;SDS011;29622;45.534;9.242;2022-09-16T21:36:12;5.82;;;1.90;;
43962;SDS011;29622;45.534;9.242;2022-09-16T21:41:14;6.18;;;1.70;;
43962;SDS011;29622;45.534;9.242;2022-09-16T21:46:26;3.60;;;1.60;;
43962;SDS011;29622;45.534;9.242;2022-09-16T21:51:29;4.50;;;1.90;;
43962;SDS011;29622;45.534;9.242;2022-09-16T21:56:38;5.07;;;2.10;;
43962;SDS011;29622;45.534;9.242;2022-09-16T22:01:39;8.45;;;1.80;;
43962;SDS011;29622;45.534;9.242;2022-09-16T22:06:40;8.52;;;2.20;;
43962;SDS011;29622;45.534;9.242;2022-09-16T22:11:41;4.72;;;2.15;;
43962;SDS011;29622;45.534;9.242;2022-09-16T22:16:42;8.48;;;1.77;;
43962;SDS011;29622;45.534;9.242;2022-09-16T22:21:44;3.75;;;1.85;;
43962;SDS011;29622;45.534;9.242;2022-09-16T22:26:48;6.35;;;2.13;;
43962;SDS011;29622;45.534;9.242;2022-09-16T22:31:50;4.30;;;1.80;;
43962;SDS011;29622;45.534;9.242;2022-09-16T22:36:51;4.45;;;1.88;;
43962;SDS011;29622;45.534;9.242;2022-09-16T22:41:51;6.05;;;2.15;;
43962;SDS011;29622;45.534;9.242;2022-09-16T22:46:52;4.82;;;1.55;;
43962;SDS011;29622;45.534;9.242;2022-09-16T22:51:53;4.78;;;2.10;;
43962;SDS011;29622;45.534;9.242;2022-09-16T22:56:53;8.15;;;1.50;;
43962;SDS011;29622;45.534;9.242;2022-09-16T23:01:54;3.60;;;1.67;;
43962;SDS011;29622;45.534;9.242;2022-09-16T23:06:55;5.72;;;1.67;;
43962;SDS011;29622;45.534;9.242;2022-09-16T23:11:55;3.70;;;1.50;;
43962;SDS011;29622;45.534;9.242;2022-09-16T23:16:56;3.97;;;1.50;;
43962;SDS011;29622;45.534;9.242;2022-09-16T23:21:57;6.32;;;2.22;;
43962;SDS011;29622;45.534;9.242;2022-09-16T23:26:58;2.90;;;1.20;;
43962;SDS011;29622;45.534;9.242;2022-09-16T23:31:58;6.25;;;1.38;;
43962;SDS011;29622;45.534;9.242;2022-09-16T23:37:02;5.57;;;1.80;;
43962;SDS011;29622;45.534;9.242;2022-09-16T23:42:03;3.15;;;1.33;;
43962;SDS011;29622;45.534;9.242;2022-09-16T23:47:03;3.33;;;1.35;;
43962;SDS011;29622;45.534;9.242;2022-09-16T23:52:05;3.15;;;1.42;;
43962;SDS011;29622;45.534;9.242;2022-09-16T23:57:06;5.32;;;1.67;;
